TimeEST,TemperatureF,Dew PointF,Humidity,Sea Level PressureIn,VisibilityMPH,Wind Direction,Wind SpeedMPH,Gust SpeedMPH,PrecipitationIn,Events,Conditions,WindDirDegrees,DateUTC
12:55 AM,32.4,28.9,87,29.89,9.0,NW,5.8,-,N/A,,Overcast,310,2013-02-05 05:55:00
1:55 AM,30.0,25.5,83,29.90,7.0,NW,9.2,-,N/A,,Overcast,320,2013-02-05 06:55:00
2:38 AM,28.4,23.0,80,29.92,10.0,NNW,8.1,-,N/A,,Overcast,340,2013-02-05 07:38:00
2:55 AM,28.6,23.2,80,29.91,10.0,NNW,5.8,-,N/A,,Overcast,340,2013-02-05 07:55:00
3:55 AM,27.3,22.3,81,29.90,10.0,NNW,9.2,-,N/A,,Overcast,330,2013-02-05 08:55:00
4:10 AM,26.6,23.0,86,29.91,10.0,NNW,6.9,-,N/A,,Overcast,330,2013-02-05 09:10:00
4:19 AM,26.6,21.2,80,29.90,8.0,NW,5.8,-,N/A,,Overcast,310,2013-02-05 09:19:00
4:55 AM,26.4,21.7,82,29.92,7.0,NW,4.6,-,N/A,,Overcast,310,2013-02-05 09:55:00
5:55 AM,25.7,20.7,81,29.91,10.0,NNW,5.8,-,N/A,,Overcast,340,2013-02-05 10:55:00
6:55 AM,25.0,20.3,82,29.93,6.0,NW,4.6,-,N/A,,Overcast,320,2013-02-05 11:55:00
7:37 AM,24.8,19.4,80,29.94,10.0,NW,6.9,-,N/A,,Overcast,320,2013-02-05 12:37:00
7:55 AM,24.1,19.6,83,29.94,6.0,NW,5.8,-,N/A,,Mostly Cloudy,320,2013-02-05 12:55:00
8:45 AM,23.0,19.4,86,29.96,8.0,NW,5.8,-,N/A,,Mostly Cloudy,310,2013-02-05 13:45:00
8:55 AM,23.5,19.0,83,29.97,8.0,WNW,6.9,-,N/A,,Mostly Cloudy,290,2013-02-05 13:55:00
9:28 AM,24.8,19.4,80,29.96,7.0,NNW,5.8,-,N/A,,Mostly Cloudy,340,2013-02-05 14:28:00
9:39 AM,24.8,19.4,80,29.97,7.0,NW,6.9,-,N/A,,Mostly Cloudy,320,2013-02-05 14:39:00
9:55 AM,24.8,19.6,81,29.96,10.0,NW,5.8,-,N/A,,Mostly Cloudy,320,2013-02-05 14:55:00
10:21 AM,24.8,19.4,80,29.98,7.0,NNW,5.8,-,N/A,,Overcast,330,2013-02-05 15:21:00
10:55 AM,25.7,19.6,78,29.97,7.0,NW,3.5,-,N/A,,Overcast,310,2013-02-05 15:55:00
10:58 AM,24.8,19.4,80,29.98,7.0,Calm,Calm,-,N/A,,Mostly Cloudy,0,2013-02-05 15:58:00
11:55 AM,27.1,19.4,73,29.97,7.0,NNW,4.6,-,N/A,,Overcast,330,2013-02-05 16:55:00
12:55 PM,28.8,19.8,69,29.94,7.0,SSW,5.8,-,N/A,,Mostly Cloudy,210,2013-02-05 17:55:00
1:55 PM,30.9,20.3,65,29.91,7.0,South,6.9,-,N/A,,Mostly Cloudy,190,2013-02-05 18:55:00
2:55 PM,32.0,19.8,61,29.90,7.0,SSW,4.6,-,N/A,,Overcast,200,2013-02-05 19:55:00
3:55 PM,32.5,21.2,63,29.88,7.0,South,10.4,-,N/A,,Mostly Cloudy,180,2013-02-05 20:55:00
4:55 PM,33.1,22.8,66,29.88,7.0,SW,9.2,-,N/A,,Overcast,220,2013-02-05 21:55:00
5:10 PM,32.0,23.0,69,29.84,5.0,SSW,4.6,-,N/A,,Haze,210,2013-02-05 22:10:00
5:55 PM,32.4,24.6,73,29.88,5.0,South,6.9,-,N/A,,Haze,190,2013-02-05 22:55:00
6:55 PM,31.5,25.2,78,29.91,5.0,WSW,4.6,-,N/A,,Haze,240,2013-02-05 23:55:00
7:16 PM,33.8,24.8,70,29.93,5.0,WSW,5.8,-,N/A,Snow,Light Snow,250,2013-02-06 00:16:00
7:39 PM,33.8,24.8,70,29.94,5.0,WSW,8.1,-,N/A,,Haze,250,2013-02-06 00:39:00
7:55 PM,33.3,25.7,74,29.94,5.0,WSW,9.2,-,0.00,,Haze,250,2013-02-06 00:55:00
8:14 PM,32.0,26.6,80,29.91,5.0,West,10.4,17.3,N/A,,Haze,260,2013-02-06 01:14:00
8:45 PM,33.8,24.8,70,29.96,5.0,WSW,9.2,-,N/A,,Haze,250,2013-02-06 01:45:00
8:55 PM,34.0,25.7,72,29.96,5.0,WSW,8.1,-,N/A,,Haze,240,2013-02-06 01:55:00
9:55 PM,34.5,26.4,72,29.98,10.0,WSW,9.2,-,N/A,,Overcast,250,2013-02-06 02:55:00
10:55 PM,34.7,27.0,73,30.01,10.0,West,8.1,-,N/A,,Overcast,270,2013-02-06 03:55:00
11:41 PM,33.8,26.6,75,30.01,10.0,West,12.7,-,N/A,,Overcast,270,2013-02-06 04:41:00
11:55 PM,34.7,26.1,71,30.01,10.0,West,13.8,-,N/A,,Overcast,280,2013-02-06 04:55:00